createdAt,value
2023-03-06T00:00:41.131Z,96864.13
2023-03-06T00:03:08.933Z,96860.22
2023-03-06T00:05:36.504Z,96861.28
2023-03-06T00:08:04.180Z,96856.47
2023-03-06T00:10:33.285Z,96858.47
2023-03-06T00:13:04.374Z,96856.66
2023-03-06T00:15:32.638Z,96854.03
2023-03-06T00:18:00.601Z,96851.22
2023-03-06T00:20:28.145Z,96850.38
2023-03-06T00:22:56.295Z,96855.56
2023-03-06T00:25:24.116Z,96857.44
2023-03-06T00:27:52.164Z,96849.56
2023-03-06T00:30:22.522Z,96845.50
2023-03-06T00:32:50.649Z,96845.31
2023-03-06T00:35:18.354Z,96842.06
2023-03-06T00:37:46.312Z,96845.50
2023-03-06T00:40:16.290Z,96839.63
2023-03-06T00:42:43.959Z,96834.19
2023-03-06T00:45:12.153Z,96834.56
2023-03-06T00:47:40.498Z,96826.50
2023-03-06T00:50:09.075Z,96831.16
2023-03-06T00:52:37.310Z,96836.41
2023-03-06T00:55:05.588Z,96830.34
2023-03-06T00:57:33.203Z,96827.94
2023-03-06T01:00:00.682Z,96825.31
2023-03-06T01:02:28.393Z,96827.34
2023-03-06T01:04:55.899Z,96811.97
2023-03-06T01:07:24.094Z,96819.47
2023-03-06T01:09:51.530Z,96823.28
2023-03-06T01:12:19.655Z,96823.69
2023-03-06T01:14:47.968Z,96815.03
2023-03-06T01:17:16.090Z,96818.50
2023-03-06T01:19:44.156Z,96817.47
2023-03-06T01:22:14.355Z,96818.31
2023-03-06T01:24:41.942Z,96806.94
2023-03-06T01:27:09.392Z,96811.22
2023-03-06T01:29:36.905Z,96815.84
2023-03-06T01:32:04.584Z,96804.72
2023-03-06T01:34:32.216Z,96795.03
2023-03-06T01:36:59.711Z,96798.03
2023-03-06T01:39:28.794Z,96799.84
2023-03-06T01:41:56.285Z,96800.84
2023-03-06T01:44:23.759Z,96795.78
2023-03-06T01:46:51.270Z,96780.69
2023-03-06T01:49:29.633Z,96790.53
2023-03-06T01:52:05.942Z,96780.81
2023-03-06T01:54:42.242Z,96783.44
2023-03-06T01:57:14.092Z,96786.06
2023-03-06T01:59:43.134Z,96778.00
2023-03-06T02:02:12.747Z,96777.63
2023-03-06T02:04:42.535Z,96768.97
2023-03-06T02:07:11.194Z,96762.28
2023-03-06T02:09:39.364Z,96764.28
2023-03-06T02:12:11.445Z,96761.22
2023-03-06T02:14:41.440Z,96759.41
2023-03-06T02:17:13.065Z,96761.06
2023-03-06T02:20:03.302Z,96749.13
2023-03-06T02:22:40.605Z,96754.34
2023-03-06T02:25:15.930Z,96752.91
2023-03-06T02:27:44.526Z,96752.91
2023-03-06T02:30:16.761Z,96740.75
2023-03-06T02:32:44.314Z,96742.00
2023-03-06T02:35:20.885Z,96737.97
2023-03-06T02:37:48.745Z,96733.53
2023-03-06T02:40:20.932Z,96731.72
2023-03-06T02:42:51.804Z,96741.22
2023-03-06T02:45:45.427Z,96730.09
2023-03-06T02:48:14.573Z,96733.53
2023-03-06T02:50:43.270Z,96730.72
2023-03-06T02:53:12.840Z,96722.78
2023-03-06T02:55:40.821Z,96728.03
2023-03-06T02:58:09.030Z,96726.81
2023-03-06T03:00:36.735Z,96731.00
2023-03-06T03:03:07.573Z,96725.72
2023-03-06T03:05:35.090Z,96725.47
2023-03-06T03:08:11.148Z,96721.28
2023-03-06T03:10:38.722Z,96724.47
2023-03-06T03:13:07.027Z,96720.44
2023-03-06T03:15:35.798Z,96728.03
2023-03-06T03:18:04.098Z,96718.56
2023-03-06T03:20:32.244Z,96715.94
2023-03-06T03:22:59.868Z,96724.56
2023-03-06T03:25:27.761Z,96724.16
2023-03-06T03:27:57.931Z,96722.44
2023-03-06T03:30:26.517Z,96712.09
2023-03-06T03:32:54.340Z,96706.81
2023-03-06T03:35:22.220Z,96708.34
2023-03-06T03:37:49.866Z,96708.72
2023-03-06T03:40:17.504Z,96709.75
2023-03-06T03:42:45.062Z,96702.63
2023-03-06T03:45:13.642Z,96703.69
2023-03-06T03:47:41.808Z,96702.53
2023-03-06T03:50:12.233Z,96696.28
2023-03-06T03:52:40.655Z,96690.88
2023-03-06T03:55:08.570Z,96687.91
2023-03-06T03:57:39.341Z,96685.91
2023-03-06T04:00:10.095Z,96681.03
2023-03-06T04:03:06.931Z,96673.56
2023-03-06T04:05:38.778Z,96676.19
2023-03-06T04:08:08.613Z,96681.25
2023-03-06T04:10:39.709Z,96660.16
2023-03-06T04:13:10.138Z,96668.19
2023-03-06T04:15:41.550Z,96666.19
2023-03-06T04:18:10.017Z,96675.66
2023-03-06T04:20:37.486Z,96661.34
2023-03-06T04:23:05.534Z,96660.75
2023-03-06T04:25:33.380Z,96653.91
2023-03-06T04:28:03.569Z,96643.00
2023-03-06T04:30:32.438Z,96644.34
2023-03-06T04:33:00.097Z,96651.38
2023-03-06T04:35:28.078Z,96649.34
2023-03-06T04:38:01.256Z,96641.41
2023-03-06T04:40:36.323Z,96649.25
2023-03-06T04:43:04.514Z,96640.97
2023-03-06T04:45:33.215Z,96637.38
2023-03-06T04:48:01.259Z,96644.00
2023-03-06T04:50:32.728Z,96635.34
2023-03-06T04:53:01.692Z,96620.28
2023-03-06T04:55:29.322Z,96622.09
2023-03-06T04:57:57.507Z,96617.69
2023-03-06T05:00:31.707Z,96610.47
2023-03-06T05:03:00.953Z,96614.31
2023-03-06T05:05:29.294Z,96615.53
2023-03-06T05:07:56.821Z,96612.13
2023-03-06T05:10:24.616Z,96613.13
2023-03-06T05:12:52.149Z,96611.69
2023-03-06T05:15:19.695Z,96604.47
2023-03-06T05:17:47.735Z,96600.78
2023-03-06T05:20:16.324Z,96615.31
2023-03-06T05:22:44.454Z,96612.88
2023-03-06T05:25:12.106Z,96604.66
2023-03-06T05:27:40.319Z,96609.72
2023-03-06T05:30:10.299Z,96607.69
2023-03-06T05:32:37.851Z,96599.03
2023-03-06T05:35:22.679Z,96605.53
2023-03-06T05:37:50.669Z,96598.63
2023-03-06T05:40:19.237Z,96599.69
2023-03-06T05:42:46.815Z,96596.06
2023-03-06T05:45:14.224Z,96597.75
2023-03-06T05:47:41.835Z,96592.91
2023-03-06T05:50:10.644Z,96586.66
2023-03-06T05:52:41.403Z,96592.34
2023-03-06T05:55:11.954Z,96597.81
2023-03-06T05:57:39.515Z,96583.72
2023-03-06T06:00:08.132Z,96591.19
2023-03-06T06:02:39.983Z,96589.78
2023-03-06T06:05:09.255Z,96589.66
2023-03-06T06:07:37.450Z,96591.09
2023-03-06T06:10:06.645Z,96585.25
2023-03-06T06:12:34.751Z,96583.88
2023-03-06T06:15:02.240Z,96588.75
2023-03-06T06:17:29.714Z,96586.78
2023-03-06T06:19:57.184Z,96583.72
2023-03-06T06:22:24.770Z,96581.91
2023-03-06T06:24:53.439Z,96591.00
2023-03-06T06:27:20.994Z,96583.53
2023-03-06T06:29:51.464Z,96581.94
2023-03-06T06:32:19.439Z,96588.59
2023-03-06T06:34:47.060Z,96582.78
2023-03-06T06:37:14.551Z,96586.63
2023-03-06T06:39:42.039Z,96580.38
2023-03-06T06:42:29.930Z,96591.69
2023-03-06T06:44:57.876Z,96584.22
2023-03-06T06:47:26.101Z,96584.03
2023-03-06T06:49:55.087Z,96579.00
2023-03-06T06:52:24.080Z,96583.06
2023-03-06T06:54:52.803Z,96579.41
2023-03-06T06:57:20.341Z,96567.72
2023-03-06T06:59:47.866Z,96573.13
2023-03-06T07:02:16.633Z,96576.16
2023-03-06T07:05:02.010Z,96573.75
2023-03-06T07:07:31.143Z,96570.97
2023-03-06T07:09:58.720Z,96574.00
2023-03-06T07:12:26.301Z,96564.69
2023-03-06T07:14:53.693Z,96574.38
2023-03-06T07:17:21.202Z,96563.88
2023-03-06T07:19:48.697Z,96568.34
2023-03-06T07:22:16.472Z,96564.47
2023-03-06T07:24:43.986Z,96571.97
2023-03-06T07:27:11.441Z,96574.38
2023-03-06T07:29:38.935Z,96571.56
2023-03-06T07:32:06.712Z,96573.16
2023-03-06T07:34:34.211Z,96569.72
2023-03-06T07:37:01.782Z,96578.41
2023-03-06T07:39:30.314Z,96574.75
2023-03-06T07:41:58.783Z,96574.34
2023-03-06T07:44:27.177Z,96583.22
2023-03-06T07:46:54.944Z,96580.00
2023-03-06T07:49:22.494Z,96574.50
2023-03-06T07:51:50.032Z,96582.00
2023-03-06T07:54:17.486Z,96588.25
2023-03-06T07:56:45.067Z,96579.59
2023-03-06T07:59:12.475Z,96586.66
2023-03-06T08:01:40.410Z,96585.59
2023-03-06T08:04:08.344Z,96582.19
2023-03-06T08:06:36.347Z,96576.09
2023-03-06T08:09:04.446Z,96575.06
2023-03-06T08:11:33.456Z,96574.22
2023-03-06T08:14:01.261Z,96573.44
2023-03-06T08:16:30.615Z,96573.81
2023-03-06T08:18:58.188Z,96582.13
2023-03-06T08:21:27.687Z,96580.25
2023-03-06T08:23:55.319Z,96586.31
2023-03-06T08:26:28.317Z,96573.47
2023-03-06T08:28:57.925Z,96582.53
2023-03-06T08:31:30.063Z,96577.66
2023-03-06T08:34:00.476Z,96587.63
2023-03-06T08:36:28.483Z,96582.88
2023-03-06T08:38:57.062Z,96582.44
2023-03-06T08:41:25.445Z,96584.38
2023-03-06T08:43:53.173Z,96588.97
2023-03-06T08:46:22.581Z,96588.13
2023-03-06T08:48:50.253Z,96586.34
2023-03-06T08:51:18.714Z,96590.34
2023-03-06T08:53:46.687Z,96585.50
2023-03-06T08:56:30.332Z,96587.44
2023-03-06T08:59:00.381Z,96589.06
2023-03-06T09:01:31.005Z,96586.22
2023-03-06T09:04:01.181Z,96584.56
2023-03-06T09:06:32.394Z,96583.22
2023-03-06T09:09:00.313Z,96577.41
2023-03-06T09:11:28.515Z,96578.69
2023-03-06T09:13:59.092Z,96580.56
2023-03-06T09:16:26.810Z,96580.38
2023-03-06T09:18:54.522Z,96581.88
2023-03-06T09:21:23.099Z,96582.16
2023-03-06T09:23:51.023Z,96568.38
2023-03-06T09:26:18.897Z,96571.69
2023-03-06T09:28:46.579Z,96565.47
2023-03-06T09:31:16.613Z,96565.84
2023-03-06T09:33:45.057Z,96565.22
2023-03-06T09:36:20.929Z,96557.88
2023-03-06T09:38:50.174Z,96558.34
2023-03-06T09:41:25.002Z,96558.53
2023-03-06T09:43:56.552Z,96553.75
2023-03-06T09:46:42.949Z,96559.41
2023-03-06T09:49:13.269Z,96562.03
2023-03-06T09:51:55.772Z,96561.44
2023-03-06T09:54:48.326Z,96561.69
2023-03-06T09:57:33.240Z,96563.41
2023-03-06T10:00:05.845Z,96555.13
2023-03-06T10:02:44.862Z,96558.22
2023-03-06T10:05:41.494Z,96560.28
2023-03-06T10:08:27.118Z,96559.50
2023-03-06T10:10:59.354Z,96555.56
2023-03-06T10:13:38.645Z,96551.09
2023-03-06T10:16:18.274Z,96554.44
2023-03-06T10:18:46.113Z,96550.84
2023-03-06T10:21:42.755Z,96549.28
2023-03-06T10:24:41.151Z,96543.97
2023-03-06T10:27:23.953Z,96539.94
2023-03-06T10:30:12.275Z,96544.03
2023-03-06T10:33:15.944Z,96546.19
2023-03-06T10:35:47.554Z,96544.44
2023-03-06T10:38:28.629Z,96545.22
2023-03-06T10:41:21.875Z,96559.38
2023-03-06T10:44:01.529Z,96550.00
2023-03-06T10:46:37.903Z,96544.50
2023-03-06T10:49:26.852Z,96547.47
2023-03-06T10:52:14.201Z,96545.22
2023-03-06T10:54:44.298Z,96544.25
2023-03-06T10:57:29.899Z,96541.88
2023-03-06T11:00:05.225Z,96538.41
2023-03-06T11:02:38.703Z,96530.03
2023-03-06T11:05:18.194Z,96531.00
2023-03-06T11:07:59.391Z,96534.81
2023-03-06T11:10:28.444Z,96527.75
2023-03-06T11:12:58.660Z,96531.09
2023-03-06T11:15:27.715Z,96520.22
2023-03-06T11:18:21.863Z,96516.41
2023-03-06T11:20:55.151Z,96518.97
2023-03-06T11:23:39.812Z,96520.28
2023-03-06T11:26:16.198Z,96524.03
2023-03-06T11:29:00.603Z,96525.19
2023-03-06T11:31:35.220Z,96520.28
2023-03-06T11:34:14.607Z,96519.81
2023-03-06T11:37:07.258Z,96518.91
2023-03-06T11:39:37.270Z,96510.97
2023-03-06T11:42:28.259Z,96512.56
2023-03-06T11:45:26.963Z,96507.44
2023-03-06T11:48:16.068Z,96500.50
2023-03-06T11:50:57.710Z,96509.50
2023-03-06T11:53:37.370Z,96501.28
2023-03-06T11:56:11.158Z,96493.22
2023-03-06T11:59:01.385Z,96494.03
2023-03-06T12:01:56.518Z,96483.13
2023-03-06T12:04:24.053Z,96485.69
2023-03-06T12:07:09.825Z,96487.06
2023-03-06T12:09:48.267Z,96480.63
2023-03-06T12:12:22.373Z,96483.16
2023-03-06T12:15:30.546Z,96489.63
2023-03-06T12:18:35.131Z,96491.56
2023-03-06T12:21:59.521Z,96484.38
2023-03-06T12:24:56.456Z,96477.84
2023-03-06T12:27:53.104Z,96489.59
2023-03-06T12:30:26.346Z,96492.66
2023-03-06T12:33:02.612Z,96494.00
2023-03-06T12:35:42.405Z,96489.75
2023-03-06T12:38:32.018Z,96483.22
2023-03-06T12:41:16.651Z,96475.31
2023-03-06T12:43:51.164Z,96481.28
2023-03-06T12:46:26.876Z,96476.16
2023-03-06T12:49:05.396Z,96480.16
2023-03-06T12:51:34.310Z,96474.72
2023-03-06T12:54:03.349Z,96479.34
2023-03-06T12:56:32.455Z,96469.34
2023-03-06T12:59:03.786Z,96474.84
2023-03-06T13:02:10.346Z,96472.44
2023-03-06T13:04:46.618Z,96472.44
2023-03-06T13:07:27.959Z,96468.09
2023-03-06T13:10:07.287Z,96471.78
2023-03-06T13:12:40.909Z,96471.50
2023-03-06T13:15:39.280Z,96476.84
2023-03-06T13:18:22.106Z,96477.53
2023-03-06T13:20:54.322Z,96482.75
2023-03-06T13:23:49.609Z,96491.19
2023-03-06T13:26:26.362Z,96487.72
2023-03-06T13:28:57.876Z,96487.72
2023-03-06T13:31:28.614Z,96490.22
2023-03-06T13:33:59.753Z,96490.03
2023-03-06T13:36:35.273Z,96490.84
2023-03-06T13:39:05.345Z,96489.72
2023-03-06T13:41:32.849Z,96483.25
2023-03-06T13:44:04.973Z,96488.91
2023-03-06T13:46:35.917Z,96496.84
2023-03-06T13:49:06.238Z,96493.47
2023-03-06T13:51:35.262Z,96490.00
2023-03-06T13:54:08.919Z,96483.28
2023-03-06T13:56:57.840Z,96481.66
2023-03-06T13:59:34.351Z,96475.66
2023-03-06T14:02:10.200Z,96485.94
2023-03-06T14:05:01.833Z,96483.97
2023-03-06T14:07:32.390Z,96477.88
2023-03-06T14:10:14.863Z,96471.38
2023-03-06T14:12:43.694Z,96472.69
2023-03-06T14:15:17.598Z,96472.88
2023-03-06T14:18:05.613Z,96464.88
2023-03-06T14:20:42.445Z,96462.97
2023-03-06T14:23:21.904Z,96451.09
2023-03-06T14:26:15.768Z,96444.53
2023-03-06T14:28:58.913Z,96445.19
2023-03-06T14:31:37.085Z,96447.81
2023-03-06T14:34:16.295Z,96447.91
2023-03-06T14:36:46.714Z,96441.66
2023-03-06T14:39:21.493Z,96445.38
2023-03-06T14:41:49.178Z,96446.78
2023-03-06T14:44:26.621Z,96447.22
2023-03-06T14:46:56.934Z,96451.69
2023-03-06T14:49:26.038Z,96454.09
2023-03-06T14:51:56.523Z,96460.09
2023-03-06T14:54:34.507Z,96459.78
2023-03-06T14:57:06.415Z,96455.63
2023-03-06T14:59:45.414Z,96457.91
2023-03-06T15:02:20.013Z,96466.41
2023-03-06T15:04:51.789Z,96462.75
2023-03-06T15:07:24.167Z,96457.44
2023-03-06T15:09:53.607Z,96465.97
2023-03-06T15:12:21.471Z,96464.09
2023-03-06T15:15:26.497Z,96459.84
2023-03-06T15:17:54.503Z,96461.69
2023-03-06T15:20:42.520Z,96461.03
2023-03-06T15:23:24.731Z,96454.69
2023-03-06T15:25:58.849Z,96458.31
2023-03-06T15:28:32.784Z,96461.94
2023-03-06T15:31:10.485Z,96453.84
2023-03-06T15:33:38.099Z,96456.13
2023-03-06T15:36:18.591Z,96452.94
2023-03-06T15:38:46.785Z,96454.16
2023-03-06T15:41:25.303Z,96453.19
2023-03-06T15:43:52.936Z,96455.19
2023-03-06T15:46:20.398Z,96449.28
2023-03-06T15:49:04.478Z,96450.44
2023-03-06T15:51:32.216Z,96447.00
2023-03-06T15:54:11.226Z,96451.16
2023-03-06T15:56:42.041Z,96448.53
2023-03-06T15:59:23.244Z,96438.41
2023-03-06T16:01:51.536Z,96445.47
2023-03-06T16:04:20.049Z,96446.13
2023-03-06T16:06:47.729Z,96443.00
2023-03-06T16:09:15.325Z,96450.97
2023-03-06T16:11:45.014Z,96445.91
2023-03-06T16:14:21.488Z,96448.56
2023-03-06T16:16:50.427Z,96446.97
2023-03-06T16:19:28.038Z,96451.84
2023-03-06T16:21:56.776Z,96453.06
2023-03-06T16:24:26.270Z,96456.13
2023-03-06T16:26:55.138Z,96447.66
2023-03-06T16:29:24.976Z,96456.34
2023-03-06T16:31:55.150Z,96452.13
2023-03-06T16:34:23.240Z,96462.63
2023-03-06T16:36:53.589Z,96463.66
2023-03-06T16:39:23.055Z,96477.06
2023-03-06T16:41:51.183Z,96489.88
2023-03-06T16:44:18.765Z,96492.75
2023-03-06T16:46:48.784Z,96494.59
2023-03-06T16:49:21.090Z,96487.94
2023-03-06T16:51:49.271Z,96489.75
2023-03-06T16:54:16.981Z,96498.03
2023-03-06T16:56:45.250Z,96496.22
2023-03-06T16:59:13.520Z,96488.75
2023-03-06T17:01:43.304Z,96498.03
2023-03-06T17:04:11.278Z,96496.84
2023-03-06T17:06:39.472Z,96493.19
2023-03-06T17:09:07.169Z,96506.72
2023-03-06T17:11:38.566Z,96498.22
2023-03-06T17:14:07.108Z,96499.66
2023-03-06T17:16:36.639Z,96497.25
2023-03-06T17:19:04.253Z,96496.63
2023-03-06T17:21:34.562Z,96502.50
2023-03-06T17:24:03.906Z,96506.50
2023-03-06T17:26:31.519Z,96509.34
2023-03-06T17:28:59.189Z,96496.22
2023-03-06T17:31:28.402Z,96510.16
2023-03-06T17:34:00.512Z,96510.75
2023-03-06T17:36:29.529Z,96510.75
2023-03-06T17:38:58.781Z,96513.38
2023-03-06T17:41:26.939Z,96517.81
2023-03-06T17:43:58.500Z,96504.50
2023-03-06T17:46:26.322Z,96511.75
2023-03-06T17:48:54.631Z,96512.56
2023-03-06T17:51:22.172Z,96509.13
2023-03-06T17:53:52.288Z,96515.41
2023-03-06T17:56:19.926Z,96518.00
2023-03-06T17:58:47.832Z,96513.34
2023-03-06T18:01:19.485Z,96506.09
2023-03-06T18:03:49.916Z,96513.34
2023-03-06T18:06:18.879Z,96505.66
2023-03-06T18:08:46.825Z,96507.88
2023-03-06T18:11:14.916Z,96502.84
2023-03-06T18:13:44.628Z,96506.28
2023-03-06T18:16:14.671Z,96504.47
2023-03-06T18:18:45.504Z,96507.47
2023-03-06T18:21:15.053Z,96506.50
2023-03-06T18:23:42.577Z,96507.09
2023-03-06T18:26:14.638Z,96507.09
2023-03-06T18:28:44.687Z,96513.34
2023-03-06T18:31:16.845Z,96512.94
2023-03-06T18:33:45.030Z,96514.16
2023-03-06T18:36:12.578Z,96518.59
2023-03-06T18:38:44.227Z,96521.44
2023-03-06T18:41:13.217Z,96518.19
2023-03-06T18:43:40.723Z,96520.59
2023-03-06T18:46:08.884Z,96508.31
2023-03-06T18:48:36.813Z,96513.75
2023-03-06T18:51:06.724Z,96518.38
2023-03-06T18:53:35.303Z,96517.78
2023-03-06T18:56:03.606Z,96518.59
2023-03-06T18:58:31.204Z,96521.44
2023-03-06T19:01:00.001Z,96523.84
2023-03-06T19:03:27.652Z,96532.13
2023-03-06T19:05:55.146Z,96529.72
2023-03-06T19:08:22.704Z,96525.88
2023-03-06T19:10:50.178Z,96537.19
2023-03-06T19:13:17.976Z,96527.09
2023-03-06T19:15:47.391Z,96531.72
2023-03-06T19:18:17.781Z,96537.75
2023-03-06T19:20:45.460Z,96532.72
2023-03-06T19:23:13.599Z,96535.94
2023-03-06T19:25:41.157Z,96533.13
2023-03-06T19:28:08.576Z,96529.72
2023-03-06T19:30:40.180Z,96536.75
2023-03-06T19:33:07.737Z,96527.09
2023-03-06T19:35:35.638Z,96526.69
2023-03-06T19:38:03.158Z,96532.50
2023-03-06T19:40:30.611Z,96527.47
2023-03-06T19:42:58.178Z,96530.69
2023-03-06T19:45:25.679Z,96524.81
2023-03-06T19:47:55.979Z,96525.66
2023-03-06T19:50:28.610Z,96532.69
2023-03-06T19:52:57.537Z,96528.06
2023-03-06T19:55:26.515Z,96532.09
2023-03-06T19:57:54.545Z,96524.22
2023-03-06T20:00:22.280Z,96528.63
2023-03-06T20:02:50.121Z,96523.38
2023-03-06T20:05:18.082Z,96528.63
2023-03-06T20:07:45.593Z,96524.81
2023-03-06T20:10:13.342Z,96523.00
2023-03-06T20:12:41.012Z,96525.44
2023-03-06T20:15:09.088Z,96523.00
2023-03-06T20:17:36.675Z,96526.44
2023-03-06T20:20:04.641Z,96517.97
2023-03-06T20:22:32.193Z,96520.19
2023-03-06T20:24:59.683Z,96529.88
2023-03-06T20:27:27.350Z,96522.19
2023-03-06T20:29:54.797Z,96522.19
2023-03-06T20:32:22.350Z,96528.66
2023-03-06T20:34:49.977Z,96526.63
2023-03-06T20:37:17.703Z,96523.81
2023-03-06T20:39:45.507Z,96527.25
2023-03-06T20:42:13.149Z,96517.97
2023-03-06T20:44:40.648Z,96518.97
2023-03-06T20:47:09.025Z,96521.22
2023-03-06T20:49:37.285Z,96518.38
2023-03-06T20:52:04.954Z,96517.38
2023-03-06T20:54:32.433Z,96520.19
2023-03-06T20:57:00.231Z,96514.53
2023-03-06T20:59:30.817Z,96508.25
2023-03-06T21:01:58.383Z,96506.84
2023-03-06T21:04:25.933Z,96494.13
2023-03-06T21:06:54.243Z,96499.22
2023-03-06T21:09:22.002Z,96488.72
2023-03-06T21:11:49.601Z,96492.94
2023-03-06T21:14:17.086Z,96486.31
2023-03-06T21:16:44.720Z,96487.50
2023-03-06T21:19:12.570Z,96482.84
2023-03-06T21:21:40.267Z,96484.84
2023-03-06T21:24:08.836Z,96484.25
2023-03-06T21:26:36.437Z,96479.38
2023-03-06T21:29:04.394Z,96474.31
2023-03-06T21:31:33.517Z,96468.84
2023-03-06T21:34:03.042Z,96475.28
2023-03-06T21:36:31.787Z,96473.88
2023-03-06T21:38:59.267Z,96472.84
2023-03-06T21:41:30.462Z,96465.00
2023-03-06T21:44:04.478Z,96457.53
2023-03-06T21:46:32.867Z,96457.09
2023-03-06T21:49:02.966Z,96460.72
2023-03-06T21:51:30.597Z,96452.84
2023-03-06T21:53:59.132Z,96448.81
2023-03-06T21:56:28.613Z,96446.41
2023-03-06T21:58:56.450Z,96456.25
2023-03-06T22:01:26.834Z,96455.06
2023-03-06T22:03:54.871Z,96451.81
2023-03-06T22:06:25.284Z,96449.41
2023-03-06T22:08:55.081Z,96444.97
2023-03-06T22:11:24.225Z,96441.16
2023-03-06T22:13:55.907Z,96446.19
2023-03-06T22:16:24.108Z,96443.38
2023-03-06T22:18:52.135Z,96437.50
2023-03-06T22:21:21.777Z,96425.63
2023-03-06T22:23:51.095Z,96433.88
2023-03-06T22:26:19.607Z,96438.94
2023-03-06T22:28:47.151Z,96436.50
2023-03-06T22:31:17.511Z,96436.91
2023-03-06T22:33:45.294Z,96435.31
2023-03-06T22:36:15.395Z,96431.47
2023-03-06T22:38:44.881Z,96433.09
2023-03-06T22:41:14.089Z,96436.91
2023-03-06T22:43:42.202Z,96434.91
2023-03-06T22:46:15.410Z,96429.28
2023-03-06T22:48:44.180Z,96431.91
2023-03-06T22:51:17.648Z,96435.56
2023-03-06T22:53:46.925Z,96427.47
2023-03-06T22:56:17.573Z,96428.47
2023-03-06T22:58:45.287Z,96429.28
2023-03-06T23:01:18.997Z,96428.09
2023-03-06T23:03:49.356Z,96423.66
2023-03-06T23:06:20.322Z,96424.91
2023-03-06T23:08:53.587Z,96422.06
2023-03-06T23:11:22.006Z,96424.09
2023-03-06T23:14:08.431Z,96422.06
2023-03-06T23:16:54.688Z,96417.03
2023-03-06T23:19:40.593Z,96424.91
2023-03-06T23:22:26.602Z,96418.47
2023-03-06T23:25:12.644Z,96415.84
2023-03-06T23:27:40.636Z,96411.41
2023-03-06T23:30:09.926Z,96417.25
2023-03-06T23:32:37.500Z,96410.00
2023-03-06T23:35:05.308Z,96414.25
2023-03-06T23:37:32.810Z,96409.81
2023-03-06T23:40:01.637Z,96407.59
2023-03-06T23:42:29.178Z,96410.41
2023-03-06T23:44:56.656Z,96409.22
2023-03-06T23:47:24.288Z,96404.38
2023-03-06T23:49:51.756Z,96395.88
2023-03-06T23:52:19.335Z,96399.34
2023-03-06T23:54:49.800Z,96397.13
2023-03-06T23:57:17.302Z,96403.56
2023-03-06T23:59:45.712Z,96397.28
